sensor_id;sensor_type;location;lat;lon;timestamp;P1;durP1;ratioP1;P2;durP2;ratioP2
56752;SDS011;42627;42.646;23.642;2022-08-20T00:07:51;5.25;;;3.40;;
56752;SDS011;42627;42.646;23.642;2022-08-20T00:10:01;7.00;;;3.20;;
56752;SDS011;42627;42.646;23.642;2022-08-20T00:12:05;7.07;;;3.60;;
56752;SDS011;42627;42.646;23.642;2022-08-20T00:14:06;6.15;;;3.55;;
56752;SDS011;42627;42.646;23.642;2022-08-20T00:16:07;5.82;;;3.47;;
56752;SDS011;42627;42.646;23.642;2022-08-20T00:18:09;5.45;;;3.05;;
56752;SDS011;42627;42.646;23.642;2022-08-20T00:20:11;7.63;;;3.40;;
56752;SDS011;42627;42.646;23.642;2022-08-20T00:22:13;5.60;;;3.25;;
56752;SDS011;42627;42.646;23.642;2022-08-20T00:24:29;6.95;;;3.50;;
56752;SDS011;42627;42.646;23.642;2022-08-20T00:26:35;6.15;;;3.67;;
56752;SDS011;42627;42.646;23.642;2022-08-20T00:28:36;8.65;;;4.03;;
56752;SDS011;42627;42.646;23.642;2022-08-20T00:30:38;6.30;;;3.60;;
56752;SDS011;42627;42.646;23.642;2022-08-20T00:32:50;7.53;;;3.85;;
56752;SDS011;42627;42.646;23.642;2022-08-20T00:34:53;7.72;;;3.90;;
56752;SDS011;42627;42.646;23.642;2022-08-20T00:36:53;8.13;;;3.72;;
56752;SDS011;42627;42.646;23.642;2022-08-20T00:38:55;5.70;;;3.15;;
56752;SDS011;42627;42.646;23.642;2022-08-20T00:43:26;6.82;;;3.22;;
56752;SDS011;42627;42.646;23.642;2022-08-20T00:45:29;6.22;;;3.20;;
56752;SDS011;42627;42.646;23.642;2022-08-20T00:47:30;6.67;;;3.03;;
56752;SDS011;42627;42.646;23.642;2022-08-20T00:49:31;6.72;;;3.92;;
56752;SDS011;42627;42.646;23.642;2022-08-20T00:59:23;6.32;;;3.75;;
56752;SDS011;42627;42.646;23.642;2022-08-20T01:01:26;5.82;;;3.47;;
56752;SDS011;42627;42.646;23.642;2022-08-20T01:03:29;6.97;;;3.13;;
56752;SDS011;42627;42.646;23.642;2022-08-20T01:05:29;5.35;;;3.15;;
56752;SDS011;42627;42.646;23.642;2022-08-20T01:07:30;6.10;;;2.92;;
56752;SDS011;42627;42.646;23.642;2022-08-20T01:09:33;5.10;;;3.17;;
56752;SDS011;42627;42.646;23.642;2022-08-20T01:11:35;5.95;;;3.53;;
56752;SDS011;42627;42.646;23.642;2022-08-20T01:13:36;8.40;;;3.47;;
56752;SDS011;42627;42.646;23.642;2022-08-20T01:15:40;6.72;;;3.35;;
56752;SDS011;42627;42.646;23.642;2022-08-20T01:17:48;8.37;;;3.23;;
56752;SDS011;42627;42.646;23.642;2022-08-20T01:19:56;5.63;;;3.10;;
56752;SDS011;42627;42.646;23.642;2022-08-20T01:22:05;6.10;;;3.40;;
56752;SDS011;42627;42.646;23.642;2022-08-20T01:24:31;6.32;;;4.13;;
56752;SDS011;42627;42.646;23.642;2022-08-20T01:26:55;5.60;;;3.38;;
56752;SDS011;42627;42.646;23.642;2022-08-20T01:31:28;7.60;;;3.63;;
56752;SDS011;42627;42.646;23.642;2022-08-20T01:33:32;5.82;;;3.08;;
56752;SDS011;42627;42.646;23.642;2022-08-20T01:35:34;5.45;;;3.13;;
56752;SDS011;42627;42.646;23.642;2022-08-20T01:37:39;8.13;;;3.75;;
56752;SDS011;42627;42.646;23.642;2022-08-20T01:39:40;6.05;;;3.45;;
56752;SDS011;42627;42.646;23.642;2022-08-20T01:43:51;7.65;;;3.78;;
56752;SDS011;42627;42.646;23.642;2022-08-20T01:46:01;9.65;;;3.80;;
56752;SDS011;42627;42.646;23.642;2022-08-20T01:48:02;8.40;;;3.40;;
56752;SDS011;42627;42.646;23.642;2022-08-20T02:46:31;5.43;;;2.95;;
56752;SDS011;42627;42.646;23.642;2022-08-20T02:48:32;7.43;;;4.03;;
56752;SDS011;42627;42.646;23.642;2022-08-20T02:50:33;6.60;;;3.72;;
56752;SDS011;42627;42.646;23.642;2022-08-20T02:52:34;6.90;;;3.20;;
56752;SDS011;42627;42.646;23.642;2022-08-20T02:54:34;5.57;;;3.17;;
56752;SDS011;42627;42.646;23.642;2022-08-20T02:56:35;7.90;;;3.50;;
56752;SDS011;42627;42.646;23.642;2022-08-20T02:58:36;8.00;;;3.60;;
56752;SDS011;42627;42.646;23.642;2022-08-20T03:05:29;6.25;;;3.40;;
56752;SDS011;42627;42.646;23.642;2022-08-20T03:07:30;6.72;;;3.63;;
56752;SDS011;42627;42.646;23.642;2022-08-20T03:09:31;9.88;;;3.40;;
56752;SDS011;42627;42.646;23.642;2022-08-20T03:11:31;6.60;;;3.13;;
56752;SDS011;42627;42.646;23.642;2022-08-20T03:13:34;7.75;;;3.58;;
56752;SDS011;42627;42.646;23.642;2022-08-20T03:15:35;5.63;;;2.90;;
56752;SDS011;42627;42.646;23.642;2022-08-20T03:17:36;6.93;;;3.65;;
56752;SDS011;42627;42.646;23.642;2022-08-20T03:19:36;5.70;;;3.03;;
56752;SDS011;42627;42.646;23.642;2022-08-20T03:21:37;6.85;;;4.07;;
56752;SDS011;42627;42.646;23.642;2022-08-20T03:23:38;6.95;;;3.53;;
56752;SDS011;42627;42.646;23.642;2022-08-20T03:25:39;7.70;;;3.65;;
56752;SDS011;42627;42.646;23.642;2022-08-20T03:27:41;9.25;;;4.65;;
56752;SDS011;42627;42.646;23.642;2022-08-20T03:35:00;9.00;;;3.80;;
56752;SDS011;42627;42.646;23.642;2022-08-20T03:37:01;8.23;;;3.35;;
56752;SDS011;42627;42.646;23.642;2022-08-20T03:39:04;6.38;;;3.53;;
56752;SDS011;42627;42.646;23.642;2022-08-20T03:41:06;7.45;;;3.95;;
56752;SDS011;42627;42.646;23.642;2022-08-20T03:43:07;7.45;;;3.78;;
56752;SDS011;42627;42.646;23.642;2022-08-20T03:45:09;7.45;;;3.80;;
56752;SDS011;42627;42.646;23.642;2022-08-20T03:47:11;6.03;;;3.22;;
56752;SDS011;42627;42.646;23.642;2022-08-20T03:49:18;6.38;;;3.33;;
56752;SDS011;42627;42.646;23.642;2022-08-20T03:51:18;7.53;;;3.60;;
56752;SDS011;42627;42.646;23.642;2022-08-20T03:53:19;9.68;;;3.95;;
56752;SDS011;42627;42.646;23.642;2022-08-20T03:55:20;8.75;;;4.32;;
56752;SDS011;42627;42.646;23.642;2022-08-20T03:57:22;6.32;;;3.70;;
56752;SDS011;42627;42.646;23.642;2022-08-20T03:59:26;7.50;;;3.78;;
56752;SDS011;42627;42.646;23.642;2022-08-20T04:01:45;7.03;;;4.25;;
56752;SDS011;42627;42.646;23.642;2022-08-20T04:03:47;7.10;;;3.35;;
56752;SDS011;42627;42.646;23.642;2022-08-20T04:05:48;7.35;;;3.72;;
56752;SDS011;42627;42.646;23.642;2022-08-20T04:07:49;5.53;;;3.45;;
56752;SDS011;42627;42.646;23.642;2022-08-20T04:09:51;7.57;;;3.90;;
56752;SDS011;42627;42.646;23.642;2022-08-20T04:11:53;5.85;;;3.40;;
56752;SDS011;42627;42.646;23.642;2022-08-20T04:13:57;7.88;;;3.67;;
56752;SDS011;42627;42.646;23.642;2022-08-20T04:16:01;6.35;;;3.30;;
56752;SDS011;42627;42.646;23.642;2022-08-20T04:18:08;5.82;;;3.33;;
56752;SDS011;42627;42.646;23.642;2022-08-20T04:20:11;5.85;;;3.42;;
56752;SDS011;42627;42.646;23.642;2022-08-20T04:22:15;5.13;;;3.45;;
56752;SDS011;42627;42.646;23.642;2022-08-20T04:24:16;5.15;;;3.00;;
56752;SDS011;42627;42.646;23.642;2022-08-20T04:26:16;5.95;;;3.38;;
56752;SDS011;42627;42.646;23.642;2022-08-20T04:28:20;6.53;;;3.60;;
56752;SDS011;42627;42.646;23.642;2022-08-20T04:30:28;7.22;;;3.60;;
56752;SDS011;42627;42.646;23.642;2022-08-20T04:34:55;7.18;;;3.97;;
56752;SDS011;42627;42.646;23.642;2022-08-20T04:37:00;6.50;;;3.53;;
56752;SDS011;42627;42.646;23.642;2022-08-20T04:39:01;6.85;;;3.90;;
56752;SDS011;42627;42.646;23.642;2022-08-20T04:41:01;9.15;;;4.68;;
56752;SDS011;42627;42.646;23.642;2022-08-20T04:43:03;8.63;;;3.90;;
56752;SDS011;42627;42.646;23.642;2022-08-20T04:45:04;6.97;;;3.70;;
56752;SDS011;42627;42.646;23.642;2022-08-20T04:47:06;20.40;;;11.77;;
56752;SDS011;42627;42.646;23.642;2022-08-20T04:49:07;12.75;;;7.28;;
56752;SDS011;42627;42.646;23.642;2022-08-20T04:51:08;8.15;;;4.03;;
56752;SDS011;42627;42.646;23.642;2022-08-20T04:53:10;7.22;;;3.95;;
56752;SDS011;42627;42.646;23.642;2022-08-20T04:55:12;5.15;;;3.15;;
56752;SDS011;42627;42.646;23.642;2022-08-20T04:57:12;7.38;;;3.90;;
56752;SDS011;42627;42.646;23.642;2022-08-20T04:59:28;7.35;;;3.83;;
56752;SDS011;42627;42.646;23.642;2022-08-20T05:01:44;5.45;;;3.10;;
56752;SDS011;42627;42.646;23.642;2022-08-20T05:03:50;9.55;;;4.00;;
56752;SDS011;42627;42.646;23.642;2022-08-20T05:05:55;6.80;;;3.30;;
56752;SDS011;42627;42.646;23.642;2022-08-20T05:07:56;6.75;;;3.58;;
56752;SDS011;42627;42.646;23.642;2022-08-20T05:09:57;6.90;;;4.00;;
56752;SDS011;42627;42.646;23.642;2022-08-20T05:11:58;7.50;;;4.18;;
56752;SDS011;42627;42.646;23.642;2022-08-20T05:13:58;7.75;;;4.38;;
56752;SDS011;42627;42.646;23.642;2022-08-20T05:15:59;5.85;;;3.97;;
56752;SDS011;42627;42.646;23.642;2022-08-20T05:18:07;6.75;;;4.15;;
56752;SDS011;42627;42.646;23.642;2022-08-20T05:20:15;5.95;;;3.65;;
56752;SDS011;42627;42.646;23.642;2022-08-20T05:22:16;6.05;;;3.20;;
56752;SDS011;42627;42.646;23.642;2022-08-20T05:24:17;6.57;;;3.53;;
56752;SDS011;42627;42.646;23.642;2022-08-20T05:26:20;8.07;;;3.50;;
56752;SDS011;42627;42.646;23.642;2022-08-20T05:33:29;6.45;;;3.30;;
56752;SDS011;42627;42.646;23.642;2022-08-20T05:35:32;5.57;;;3.28;;
56752;SDS011;42627;42.646;23.642;2022-08-20T05:37:38;6.60;;;3.58;;
56752;SDS011;42627;42.646;23.642;2022-08-20T05:39:40;5.95;;;2.97;;
56752;SDS011;42627;42.646;23.642;2022-08-20T05:41:40;7.45;;;3.53;;
56752;SDS011;42627;42.646;23.642;2022-08-20T05:43:41;6.53;;;3.83;;
56752;SDS011;42627;42.646;23.642;2022-08-20T05:45:44;6.50;;;4.00;;
56752;SDS011;42627;42.646;23.642;2022-08-20T07:38:03;6.00;;;3.80;;
56752;SDS011;42627;42.646;23.642;2022-08-20T07:40:04;7.07;;;3.53;;
56752;SDS011;42627;42.646;23.642;2022-08-20T07:42:06;6.22;;;3.45;;
56752;SDS011;42627;42.646;23.642;2022-08-20T07:44:07;5.75;;;3.05;;
56752;SDS011;42627;42.646;23.642;2022-08-20T07:46:08;8.50;;;3.95;;
56752;SDS011;42627;42.646;23.642;2022-08-20T07:48:10;5.35;;;3.85;;
56752;SDS011;42627;42.646;23.642;2022-08-20T07:50:13;8.07;;;4.13;;
56752;SDS011;42627;42.646;23.642;2022-08-20T07:52:14;6.18;;;3.85;;
56752;SDS011;42627;42.646;23.642;2022-08-20T07:54:15;5.03;;;3.13;;
56752;SDS011;42627;42.646;23.642;2022-08-20T07:56:18;6.28;;;3.60;;
56752;SDS011;42627;42.646;23.642;2022-08-20T07:58:20;9.05;;;3.22;;
56752;SDS011;42627;42.646;23.642;2022-08-20T08:00:22;5.60;;;2.90;;
56752;SDS011;42627;42.646;23.642;2022-08-20T08:05:11;7.32;;;3.67;;
56752;SDS011;42627;42.646;23.642;2022-08-20T08:07:12;5.63;;;3.00;;
56752;SDS011;42627;42.646;23.642;2022-08-20T08:09:15;7.35;;;3.47;;
56752;SDS011;42627;42.646;23.642;2022-08-20T08:11:17;6.97;;;3.60;;
56752;SDS011;42627;42.646;23.642;2022-08-20T08:13:18;5.22;;;3.10;;
56752;SDS011;42627;42.646;23.642;2022-08-20T08:15:25;6.88;;;3.22;;
56752;SDS011;42627;42.646;23.642;2022-08-20T08:17:31;6.68;;;3.22;;
56752;SDS011;42627;42.646;23.642;2022-08-20T08:19:34;5.35;;;3.15;;
56752;SDS011;42627;42.646;23.642;2022-08-20T08:21:42;6.38;;;3.72;;
56752;SDS011;42627;42.646;23.642;2022-08-20T08:23:47;5.35;;;3.35;;
56752;SDS011;42627;42.646;23.642;2022-08-20T08:25:49;6.70;;;3.22;;
56752;SDS011;42627;42.646;23.642;2022-08-20T08:27:53;6.10;;;3.15;;
56752;SDS011;42627;42.646;23.642;2022-08-20T08:29:54;5.88;;;3.33;;
56752;SDS011;42627;42.646;23.642;2022-08-20T08:32:07;6.70;;;3.15;;
56752;SDS011;42627;42.646;23.642;2022-08-20T08:34:14;6.72;;;3.70;;
56752;SDS011;42627;42.646;23.642;2022-08-20T08:36:16;4.82;;;2.97;;
56752;SDS011;42627;42.646;23.642;2022-08-20T08:38:17;5.43;;;3.20;;
56752;SDS011;42627;42.646;23.642;2022-08-20T08:40:21;5.63;;;3.60;;
56752;SDS011;42627;42.646;23.642;2022-08-20T08:44:27;6.25;;;3.30;;
56752;SDS011;42627;42.646;23.642;2022-08-20T08:46:37;5.93;;;3.03;;
56752;SDS011;42627;42.646;23.642;2022-08-20T08:48:40;6.13;;;3.25;;
56752;SDS011;42627;42.646;23.642;2022-08-20T08:50:43;6.38;;;2.90;;
56752;SDS011;42627;42.646;23.642;2022-08-20T08:52:45;5.97;;;3.47;;
56752;SDS011;42627;42.646;23.642;2022-08-20T08:54:52;6.15;;;3.35;;
56752;SDS011;42627;42.646;23.642;2022-08-20T08:56:53;5.47;;;3.50;;
56752;SDS011;42627;42.646;23.642;2022-08-20T08:58:59;5.05;;;3.30;;
56752;SDS011;42627;42.646;23.642;2022-08-20T09:01:07;7.50;;;3.75;;
56752;SDS011;42627;42.646;23.642;2022-08-20T09:03:10;7.15;;;3.03;;
56752;SDS011;42627;42.646;23.642;2022-08-20T09:05:17;5.35;;;3.22;;
56752;SDS011;42627;42.646;23.642;2022-08-20T09:07:21;6.28;;;3.33;;
56752;SDS011;42627;42.646;23.642;2022-08-20T09:09:25;6.00;;;3.42;;
56752;SDS011;42627;42.646;23.642;2022-08-20T09:11:28;6.55;;;3.65;;
56752;SDS011;42627;42.646;23.642;2022-08-20T09:13:29;5.63;;;3.05;;
56752;SDS011;42627;42.646;23.642;2022-08-20T09:15:35;4.68;;;2.95;;
56752;SDS011;42627;42.646;23.642;2022-08-20T09:17:48;5.85;;;3.10;;
56752;SDS011;42627;42.646;23.642;2022-08-20T09:20:16;5.00;;;2.95;;
56752;SDS011;42627;42.646;23.642;2022-08-20T09:22:19;5.55;;;3.40;;
56752;SDS011;42627;42.646;23.642;2022-08-20T09:24:21;7.57;;;3.35;;
56752;SDS011;42627;42.646;23.642;2022-08-20T09:26:22;6.05;;;3.47;;
56752;SDS011;42627;42.646;23.642;2022-08-20T09:28:23;5.63;;;3.58;;
56752;SDS011;42627;42.646;23.642;2022-08-20T09:30:24;5.68;;;3.30;;
56752;SDS011;42627;42.646;23.642;2022-08-20T09:32:25;5.13;;;3.45;;
56752;SDS011;42627;42.646;23.642;2022-08-20T09:34:39;6.05;;;3.47;;
56752;SDS011;42627;42.646;23.642;2022-08-20T09:36:40;5.47;;;3.13;;
56752;SDS011;42627;42.646;23.642;2022-08-20T09:38:41;7.03;;;3.20;;
56752;SDS011;42627;42.646;23.642;2022-08-20T09:40:42;5.72;;;3.53;;
56752;SDS011;42627;42.646;23.642;2022-08-20T09:42:43;5.82;;;3.45;;
56752;SDS011;42627;42.646;23.642;2022-08-20T09:47:15;5.07;;;3.25;;
56752;SDS011;42627;42.646;23.642;2022-08-20T09:49:17;6.70;;;3.55;;
56752;SDS011;42627;42.646;23.642;2022-08-20T09:51:18;6.15;;;3.58;;
56752;SDS011;42627;42.646;23.642;2022-08-20T09:53:20;4.25;;;3.00;;
56752;SDS011;42627;42.646;23.642;2022-08-20T09:57:28;6.88;;;3.80;;
56752;SDS011;42627;42.646;23.642;2022-08-20T09:59:30;5.45;;;3.08;;
56752;SDS011;42627;42.646;23.642;2022-08-20T10:01:32;6.70;;;3.97;;
56752;SDS011;42627;42.646;23.642;2022-08-20T10:03:46;5.40;;;3.33;;
56752;SDS011;42627;42.646;23.642;2022-08-20T10:05:50;5.93;;;3.47;;
56752;SDS011;42627;42.646;23.642;2022-08-20T10:07:51;5.50;;;3.40;;
56752;SDS011;42627;42.646;23.642;2022-08-20T10:09:52;6.82;;;3.72;;
56752;SDS011;42627;42.646;23.642;2022-08-20T10:11:53;6.03;;;3.00;;
56752;SDS011;42627;42.646;23.642;2022-08-20T10:14:03;5.20;;;3.28;;
56752;SDS011;42627;42.646;23.642;2022-08-20T10:16:13;6.22;;;3.40;;
56752;SDS011;42627;42.646;23.642;2022-08-20T10:18:33;5.40;;;3.22;;
56752;SDS011;42627;42.646;23.642;2022-08-20T10:20:34;7.35;;;3.78;;
56752;SDS011;42627;42.646;23.642;2022-08-20T10:22:35;5.68;;;3.55;;
56752;SDS011;42627;42.646;23.642;2022-08-20T10:24:36;5.22;;;3.20;;
56752;SDS011;42627;42.646;23.642;2022-08-20T10:26:37;6.10;;;3.65;;
56752;SDS011;42627;42.646;23.642;2022-08-20T10:28:38;5.78;;;3.58;;
56752;SDS011;42627;42.646;23.642;2022-08-20T10:30:39;7.00;;;3.17;;
56752;SDS011;42627;42.646;23.642;2022-08-20T10:32:40;4.95;;;2.90;;
56752;SDS011;42627;42.646;23.642;2022-08-20T10:34:46;5.32;;;3.40;;
56752;SDS011;42627;42.646;23.642;2022-08-20T10:36:47;6.90;;;3.30;;
56752;SDS011;42627;42.646;23.642;2022-08-20T10:38:48;7.60;;;3.83;;
56752;SDS011;42627;42.646;23.642;2022-08-20T10:40:49;5.38;;;3.42;;
56752;SDS011;42627;42.646;23.642;2022-08-20T10:42:50;6.30;;;3.58;;
56752;SDS011;42627;42.646;23.642;2022-08-20T10:49:41;8.25;;;3.40;;
56752;SDS011;42627;42.646;23.642;2022-08-20T10:51:42;4.68;;;2.95;;
56752;SDS011;42627;42.646;23.642;2022-08-20T10:53:43;5.97;;;3.30;;
56752;SDS011;42627;42.646;23.642;2022-08-20T10:55:44;6.35;;;3.13;;
56752;SDS011;42627;42.646;23.642;2022-08-20T10:57:46;5.95;;;3.45;;
56752;SDS011;42627;42.646;23.642;2022-08-20T10:59:47;6.20;;;3.20;;
56752;SDS011;42627;42.646;23.642;2022-08-20T11:01:49;5.10;;;3.47;;
56752;SDS011;42627;42.646;23.642;2022-08-20T11:03:55;6.30;;;3.28;;
56752;SDS011;42627;42.646;23.642;2022-08-20T11:05:56;6.47;;;3.55;;
56752;SDS011;42627;42.646;23.642;2022-08-20T11:07:57;4.90;;;3.22;;
56752;SDS011;42627;42.646;23.642;2022-08-20T11:10:01;5.20;;;3.35;;
56752;SDS011;42627;42.646;23.642;2022-08-20T11:12:03;7.03;;;3.60;;
56752;SDS011;42627;42.646;23.642;2022-08-20T11:18:56;3.80;;;2.67;;
56752;SDS011;42627;42.646;23.642;2022-08-20T11:20:57;7.05;;;3.53;;
56752;SDS011;42627;42.646;23.642;2022-08-20T11:22:58;5.07;;;3.08;;
56752;SDS011;42627;42.646;23.642;2022-08-20T11:24:59;4.80;;;3.42;;
56752;SDS011;42627;42.646;23.642;2022-08-20T11:27:00;5.40;;;3.53;;
56752;SDS011;42627;42.646;23.642;2022-08-20T11:29:02;5.15;;;3.03;;
56752;SDS011;42627;42.646;23.642;2022-08-20T11:31:03;5.90;;;3.50;;
56752;SDS011;42627;42.646;23.642;2022-08-20T11:33:04;5.32;;;3.03;;
56752;SDS011;42627;42.646;23.642;2022-08-20T11:35:05;5.20;;;3.17;;
56752;SDS011;42627;42.646;23.642;2022-08-20T11:37:06;6.40;;;4.05;;
56752;SDS011;42627;42.646;23.642;2022-08-20T11:39:07;6.25;;;3.80;;
56752;SDS011;42627;42.646;23.642;2022-08-20T11:41:08;5.78;;;3.78;;
56752;SDS011;42627;42.646;23.642;2022-08-20T11:43:09;6.68;;;3.83;;
56752;SDS011;42627;42.646;23.642;2022-08-20T11:45:10;6.70;;;3.80;;
56752;SDS011;42627;42.646;23.642;2022-08-20T11:47:19;7.25;;;3.83;;
56752;SDS011;42627;42.646;23.642;2022-08-20T11:49:20;6.20;;;3.80;;
56752;SDS011;42627;42.646;23.642;2022-08-20T11:51:21;6.40;;;3.78;;
56752;SDS011;42627;42.646;23.642;2022-08-20T11:53:22;5.95;;;3.70;;
56752;SDS011;42627;42.646;23.642;2022-08-20T11:55:23;7.85;;;4.15;;
56752;SDS011;42627;42.646;23.642;2022-08-20T11:57:25;6.35;;;4.07;;
56752;SDS011;42627;42.646;23.642;2022-08-20T11:59:26;5.95;;;3.88;;
56752;SDS011;42627;42.646;23.642;2022-08-20T12:01:27;5.68;;;3.65;;
56752;SDS011;42627;42.646;23.642;2022-08-20T12:03:28;7.25;;;4.07;;
56752;SDS011;42627;42.646;23.642;2022-08-20T12:05:29;6.03;;;3.90;;
56752;SDS011;42627;42.646;23.642;2022-08-20T12:07:30;6.82;;;4.20;;
56752;SDS011;42627;42.646;23.642;2022-08-20T12:09:31;6.18;;;4.07;;
56752;SDS011;42627;42.646;23.642;2022-08-20T12:11:32;5.45;;;3.40;;
56752;SDS011;42627;42.646;23.642;2022-08-20T12:18:27;6.43;;;4.00;;
56752;SDS011;42627;42.646;23.642;2022-08-20T12:20:28;6.63;;;4.20;;
56752;SDS011;42627;42.646;23.642;2022-08-20T12:22:29;6.32;;;4.03;;
56752;SDS011;42627;42.646;23.642;2022-08-20T12:24:30;7.25;;;4.30;;
56752;SDS011;42627;42.646;23.642;2022-08-20T12:26:31;7.80;;;4.53;;
56752;SDS011;42627;42.646;23.642;2022-08-20T12:28:32;6.30;;;3.85;;
56752;SDS011;42627;42.646;23.642;2022-08-20T12:30:33;6.63;;;3.95;;
56752;SDS011;42627;42.646;23.642;2022-08-20T12:32:40;6.78;;;4.05;;
56752;SDS011;42627;42.646;23.642;2022-08-20T12:34:41;9.90;;;4.25;;
56752;SDS011;42627;42.646;23.642;2022-08-20T12:36:42;6.32;;;4.32;;
56752;SDS011;42627;42.646;23.642;2022-08-20T12:38:43;7.95;;;4.13;;
56752;SDS011;42627;42.646;23.642;2022-08-20T12:40:44;5.70;;;3.65;;
56752;SDS011;42627;42.646;23.642;2022-08-20T12:48:13;6.75;;;4.15;;
56752;SDS011;42627;42.646;23.642;2022-08-20T12:50:23;6.75;;;3.92;;
56752;SDS011;42627;42.646;23.642;2022-08-20T12:52:26;9.63;;;4.75;;
56752;SDS011;42627;42.646;23.642;2022-08-20T12:54:27;7.75;;;4.97;;
56752;SDS011;42627;42.646;23.642;2022-08-20T12:56:28;6.05;;;4.07;;
56752;SDS011;42627;42.646;23.642;2022-08-20T12:58:29;6.65;;;4.10;;
56752;SDS011;42627;42.646;23.642;2022-08-20T13:00:31;6.22;;;4.25;;
56752;SDS011;42627;42.646;23.642;2022-08-20T13:02:33;6.40;;;4.10;;
56752;SDS011;42627;42.646;23.642;2022-08-20T13:04:34;6.07;;;3.97;;
56752;SDS011;42627;42.646;23.642;2022-08-20T13:06:35;7.68;;;4.38;;
56752;SDS011;42627;42.646;23.642;2022-08-20T13:08:37;5.97;;;4.22;;
56752;SDS011;42627;42.646;23.642;2022-08-20T13:10:39;6.50;;;4.25;;
56752;SDS011;42627;42.646;23.642;2022-08-20T13:12:44;7.88;;;4.57;;
56752;SDS011;42627;42.646;23.642;2022-08-20T13:14:45;6.35;;;4.30;;
56752;SDS011;42627;42.646;23.642;2022-08-20T13:17:05;7.07;;;4.25;;
56752;SDS011;42627;42.646;23.642;2022-08-20T13:19:06;9.15;;;5.32;;
56752;SDS011;42627;42.646;23.642;2022-08-20T13:21:10;9.32;;;4.68;;
56752;SDS011;42627;42.646;23.642;2022-08-20T13:23:11;10.00;;;4.57;;
56752;SDS011;42627;42.646;23.642;2022-08-20T13:25:13;9.32;;;4.47;;
56752;SDS011;42627;42.646;23.642;2022-08-20T13:27:32;7.38;;;4.78;;
56752;SDS011;42627;42.646;23.642;2022-08-20T13:32:06;6.20;;;4.28;;
56752;SDS011;42627;42.646;23.642;2022-08-20T13:34:08;7.10;;;4.68;;
56752;SDS011;42627;42.646;23.642;2022-08-20T13:36:10;7.38;;;4.43;;
56752;SDS011;42627;42.646;23.642;2022-08-20T13:38:12;7.53;;;4.40;;
56752;SDS011;42627;42.646;23.642;2022-08-20T13:40:13;7.03;;;4.88;;
56752;SDS011;42627;42.646;23.642;2022-08-20T13:42:14;7.50;;;4.05;;
56752;SDS011;42627;42.646;23.642;2022-08-20T13:44:16;7.60;;;4.50;;
56752;SDS011;42627;42.646;23.642;2022-08-20T13:46:29;6.63;;;4.22;;
56752;SDS011;42627;42.646;23.642;2022-08-20T13:48:31;10.18;;;4.68;;
56752;SDS011;42627;42.646;23.642;2022-08-20T13:50:32;8.63;;;5.03;;
56752;SDS011;42627;42.646;23.642;2022-08-20T13:52:33;9.38;;;4.75;;
56752;SDS011;42627;42.646;23.642;2022-08-20T13:54:34;7.53;;;4.13;;
56752;SDS011;42627;42.646;23.642;2022-08-20T13:56:44;6.72;;;4.75;;
56752;SDS011;42627;42.646;23.642;2022-08-20T14:01:16;8.23;;;4.72;;
56752;SDS011;42627;42.646;23.642;2022-08-20T14:03:17;7.72;;;5.22;;
56752;SDS011;42627;42.646;23.642;2022-08-20T14:05:18;9.88;;;5.88;;
56752;SDS011;42627;42.646;23.642;2022-08-20T14:09:21;9.23;;;6.40;;
56752;SDS011;42627;42.646;23.642;2022-08-20T14:11:22;8.93;;;5.30;;
56752;SDS011;42627;42.646;23.642;2022-08-20T14:13:24;11.23;;;5.65;;
56752;SDS011;42627;42.646;23.642;2022-08-20T14:15:25;8.40;;;5.15;;
56752;SDS011;42627;42.646;23.642;2022-08-20T14:17:27;9.02;;;5.28;;
56752;SDS011;42627;42.646;23.642;2022-08-20T14:19:28;7.82;;;4.97;;
56752;SDS011;42627;42.646;23.642;2022-08-20T14:21:32;9.88;;;5.50;;
56752;SDS011;42627;42.646;23.642;2022-08-20T14:23:33;7.47;;;4.93;;
56752;SDS011;42627;42.646;23.642;2022-08-20T14:25:34;8.70;;;5.25;;
56752;SDS011;42627;42.646;23.642;2022-08-20T14:32:26;8.32;;;5.53;;
56752;SDS011;42627;42.646;23.642;2022-08-20T14:34:28;9.38;;;5.07;;
56752;SDS011;42627;42.646;23.642;2022-08-20T14:36:29;7.57;;;4.63;;
56752;SDS011;42627;42.646;23.642;2022-08-20T14:38:30;8.32;;;5.28;;
56752;SDS011;42627;42.646;23.642;2022-08-20T14:40:31;9.23;;;5.55;;
56752;SDS011;42627;42.646;23.642;2022-08-20T14:42:33;7.97;;;4.45;;
56752;SDS011;42627;42.646;23.642;2022-08-20T14:44:46;7.65;;;4.97;;
56752;SDS011;42627;42.646;23.642;2022-08-20T14:46:47;9.68;;;5.30;;
56752;SDS011;42627;42.646;23.642;2022-08-20T14:48:48;8.05;;;4.88;;
56752;SDS011;42627;42.646;23.642;2022-08-20T14:50:49;9.40;;;5.80;;
56752;SDS011;42627;42.646;23.642;2022-08-20T14:52:50;9.88;;;5.18;;
56752;SDS011;42627;42.646;23.642;2022-08-20T14:54:51;9.73;;;5.65;;
56752;SDS011;42627;42.646;23.642;2022-08-20T14:56:52;10.93;;;5.72;;
56752;SDS011;42627;42.646;23.642;2022-08-20T14:58:54;9.23;;;5.65;;
56752;SDS011;42627;42.646;23.642;2022-08-20T15:00:56;8.82;;;4.93;;
56752;SDS011;42627;42.646;23.642;2022-08-20T15:03:03;7.43;;;4.82;;
56752;SDS011;42627;42.646;23.642;2022-08-20T15:05:23;8.15;;;4.78;;
56752;SDS011;42627;42.646;23.642;2022-08-20T15:07:26;9.98;;;5.15;;
56752;SDS011;42627;42.646;23.642;2022-08-20T15:09:30;10.73;;;5.47;;
56752;SDS011;42627;42.646;23.642;2022-08-20T15:11:32;7.00;;;3.33;;
56752;SDS011;42627;42.646;23.642;2022-08-20T15:13:36;9.07;;;4.18;;
56752;SDS011;42627;42.646;23.642;2022-08-20T15:15:37;8.98;;;3.50;;
56752;SDS011;42627;42.646;23.642;2022-08-20T15:17:41;4.95;;;2.95;;
56752;SDS011;42627;42.646;23.642;2022-08-20T15:19:43;9.20;;;3.58;;
56752;SDS011;42627;42.646;23.642;2022-08-20T15:21:44;8.38;;;3.50;;
56752;SDS011;42627;42.646;23.642;2022-08-20T15:23:45;7.93;;;3.60;;
56752;SDS011;42627;42.646;23.642;2022-08-20T15:25:46;8.57;;;3.80;;
56752;SDS011;42627;42.646;23.642;2022-08-20T15:27:47;7.85;;;3.70;;
56752;SDS011;42627;42.646;23.642;2022-08-20T15:29:49;8.63;;;3.85;;
56752;SDS011;42627;42.646;23.642;2022-08-20T15:31:55;7.32;;;4.10;;
56752;SDS011;42627;42.646;23.642;2022-08-20T15:33:57;8.23;;;4.03;;
56752;SDS011;42627;42.646;23.642;2022-08-20T15:38:18;9.60;;;4.57;;
56752;SDS011;42627;42.646;23.642;2022-08-20T15:40:20;9.90;;;4.13;;
56752;SDS011;42627;42.646;23.642;2022-08-20T15:42:22;10.57;;;3.53;;
56752;SDS011;42627;42.646;23.642;2022-08-20T15:44:23;7.43;;;4.05;;
56752;SDS011;42627;42.646;23.642;2022-08-20T15:46:23;10.23;;;3.95;;
56752;SDS011;42627;42.646;23.642;2022-08-20T15:48:32;6.28;;;3.47;;
56752;SDS011;42627;42.646;23.642;2022-08-20T15:52:46;8.95;;;3.50;;
56752;SDS011;42627;42.646;23.642;2022-08-20T15:54:47;6.43;;;3.28;;
56752;SDS011;42627;42.646;23.642;2022-08-20T15:58:54;8.60;;;4.30;;
56752;SDS011;42627;42.646;23.642;2022-08-20T16:01:14;7.28;;;4.25;;
56752;SDS011;42627;42.646;23.642;2022-08-20T16:15:31;7.65;;;3.88;;
56752;SDS011;42627;42.646;23.642;2022-08-20T16:17:45;6.45;;;3.40;;
56752;SDS011;42627;42.646;23.642;2022-08-20T16:19:55;7.10;;;3.88;;
56752;SDS011;42627;42.646;23.642;2022-08-20T16:22:05;6.70;;;3.42;;
56752;SDS011;42627;42.646;23.642;2022-08-20T16:24:10;6.75;;;3.80;;
56752;SDS011;42627;42.646;23.642;2022-08-20T16:28:23;5.95;;;3.22;;
56752;SDS011;42627;42.646;23.642;2022-08-20T16:30:35;5.97;;;3.35;;
56752;SDS011;42627;42.646;23.642;2022-08-20T16:32:46;9.57;;;4.30;;
56752;SDS011;42627;42.646;23.642;2022-08-20T16:35:18;10.65;;;5.82;;
56752;SDS011;42627;42.646;23.642;2022-08-20T16:41:01;12.15;;;5.20;;
56752;SDS011;42627;42.646;23.642;2022-08-20T16:43:28;11.15;;;5.55;;